sensor_id;sensor_type;location;lat;lon;timestamp;P1;durP1;ratioP1;P2;durP2;ratioP2
9880;SDS011;4979;51.014;6.678;2023-04-19T00:00:04;14.30;;;11.13;;
9880;SDS011;4979;51.014;6.678;2023-04-19T00:02:33;14.27;;;11.65;;
9880;SDS011;4979;51.014;6.678;2023-04-19T00:05:00;16.42;;;11.43;;
9880;SDS011;4979;51.014;6.678;2023-04-19T00:07:25;15.20;;;12.00;;
9880;SDS011;4979;51.014;6.678;2023-04-19T00:09:51;15.07;;;12.43;;
9880;SDS011;4979;51.014;6.678;2023-04-19T00:12:17;14.80;;;12.45;;
9880;SDS011;4979;51.014;6.678;2023-04-19T00:14:42;15.07;;;12.65;;
9880;SDS011;4979;51.014;6.678;2023-04-19T00:17:08;14.85;;;12.55;;
9880;SDS011;4979;51.014;6.678;2023-04-19T00:19:35;16.40;;;13.35;;
9880;SDS011;4979;51.014;6.678;2023-04-19T00:22:01;14.55;;;12.05;;
9880;SDS011;4979;51.014;6.678;2023-04-19T00:24:27;15.38;;;12.13;;
9880;SDS011;4979;51.014;6.678;2023-04-19T00:26:53;15.07;;;11.45;;
9880;SDS011;4979;51.014;6.678;2023-04-19T00:29:19;14.05;;;11.52;;
9880;SDS011;4979;51.014;6.678;2023-04-19T00:31:44;17.70;;;12.57;;
9880;SDS011;4979;51.014;6.678;2023-04-19T00:34:10;14.50;;;11.02;;
9880;SDS011;4979;51.014;6.678;2023-04-19T00:36:35;15.90;;;12.32;;
9880;SDS011;4979;51.014;6.678;2023-04-19T00:39:01;15.05;;;12.45;;
9880;SDS011;4979;51.014;6.678;2023-04-19T00:41:27;13.35;;;11.70;;
9880;SDS011;4979;51.014;6.678;2023-04-19T00:43:53;15.18;;;12.00;;
9880;SDS011;4979;51.014;6.678;2023-04-19T00:46:18;14.32;;;11.77;;
9880;SDS011;4979;51.014;6.678;2023-04-19T00:48:45;15.68;;;11.98;;
9880;SDS011;4979;51.014;6.678;2023-04-19T00:51:11;14.07;;;11.52;;
9880;SDS011;4979;51.014;6.678;2023-04-19T00:53:37;16.45;;;11.93;;
9880;SDS011;4979;51.014;6.678;2023-04-19T00:56:04;14.27;;;12.00;;
9880;SDS011;4979;51.014;6.678;2023-04-19T00:58:31;16.50;;;11.48;;
9880;SDS011;4979;51.014;6.678;2023-04-19T01:00:57;17.25;;;12.80;;
9880;SDS011;4979;51.014;6.678;2023-04-19T01:03:23;18.85;;;12.32;;
9880;SDS011;4979;51.014;6.678;2023-04-19T01:05:51;16.33;;;12.25;;
9880;SDS011;4979;51.014;6.678;2023-04-19T01:08:17;16.05;;;12.10;;
9880;SDS011;4979;51.014;6.678;2023-04-19T01:10:42;17.92;;;12.00;;
9880;SDS011;4979;51.014;6.678;2023-04-19T01:13:08;18.60;;;12.52;;
9880;SDS011;4979;51.014;6.678;2023-04-19T01:15:34;14.13;;;12.07;;
9880;SDS011;4979;51.014;6.678;2023-04-19T01:18:00;17.48;;;12.63;;
9880;SDS011;4979;51.014;6.678;2023-04-19T01:20:26;16.80;;;12.93;;
9880;SDS011;4979;51.014;6.678;2023-04-19T01:22:53;18.08;;;12.85;;
9880;SDS011;4979;51.014;6.678;2023-04-19T01:25:18;15.95;;;12.60;;
9880;SDS011;4979;51.014;6.678;2023-04-19T01:27:44;17.77;;;13.25;;
9880;SDS011;4979;51.014;6.678;2023-04-19T01:30:10;15.80;;;12.75;;
9880;SDS011;4979;51.014;6.678;2023-04-19T01:32:36;16.90;;;12.38;;
9880;SDS011;4979;51.014;6.678;2023-04-19T01:35:01;16.27;;;13.48;;
9880;SDS011;4979;51.014;6.678;2023-04-19T01:37:27;16.73;;;12.90;;
9880;SDS011;4979;51.014;6.678;2023-04-19T01:39:53;16.33;;;13.88;;
9880;SDS011;4979;51.014;6.678;2023-04-19T01:42:18;17.70;;;13.32;;
9880;SDS011;4979;51.014;6.678;2023-04-19T01:44:44;16.40;;;13.23;;
9880;SDS011;4979;51.014;6.678;2023-04-19T01:47:09;17.20;;;13.40;;
9880;SDS011;4979;51.014;6.678;2023-04-19T01:49:35;19.58;;;12.98;;
9880;SDS011;4979;51.014;6.678;2023-04-19T01:52:01;17.52;;;12.57;;
9880;SDS011;4979;51.014;6.678;2023-04-19T01:54:26;16.13;;;12.25;;
9880;SDS011;4979;51.014;6.678;2023-04-19T01:56:52;18.15;;;13.13;;
9880;SDS011;4979;51.014;6.678;2023-04-19T01:59:17;17.35;;;13.95;;
9880;SDS011;4979;51.014;6.678;2023-04-19T02:01:43;18.23;;;12.75;;
9880;SDS011;4979;51.014;6.678;2023-04-19T02:04:09;17.10;;;12.63;;
9880;SDS011;4979;51.014;6.678;2023-04-19T02:06:34;19.02;;;13.32;;
9880;SDS011;4979;51.014;6.678;2023-04-19T02:09:00;18.63;;;13.75;;
9880;SDS011;4979;51.014;6.678;2023-04-19T02:11:26;18.15;;;13.13;;
9880;SDS011;4979;51.014;6.678;2023-04-19T02:13:51;16.30;;;12.80;;
9880;SDS011;4979;51.014;6.678;2023-04-19T02:16:17;17.52;;;13.68;;
9880;SDS011;4979;51.014;6.678;2023-04-19T02:18:42;22.52;;;13.70;;
9880;SDS011;4979;51.014;6.678;2023-04-19T02:21:10;18.88;;;13.02;;
9880;SDS011;4979;51.014;6.678;2023-04-19T02:23:36;16.58;;;12.80;;
9880;SDS011;4979;51.014;6.678;2023-04-19T02:26:02;15.35;;;13.00;;
9880;SDS011;4979;51.014;6.678;2023-04-19T02:28:30;16.92;;;12.18;;
9880;SDS011;4979;51.014;6.678;2023-04-19T02:30:57;19.88;;;12.93;;
9880;SDS011;4979;51.014;6.678;2023-04-19T02:33:24;19.05;;;13.07;;
9880;SDS011;4979;51.014;6.678;2023-04-19T02:35:50;16.65;;;12.63;;
9880;SDS011;4979;51.014;6.678;2023-04-19T02:38:16;20.10;;;12.88;;
9880;SDS011;4979;51.014;6.678;2023-04-19T02:40:42;15.68;;;11.98;;
9880;SDS011;4979;51.014;6.678;2023-04-19T02:43:07;20.15;;;12.65;;
9880;SDS011;4979;51.014;6.678;2023-04-19T02:45:33;17.10;;;13.27;;
9880;SDS011;4979;51.014;6.678;2023-04-19T02:47:59;19.80;;;14.23;;
9880;SDS011;4979;51.014;6.678;2023-04-19T02:50:25;17.48;;;12.20;;
9880;SDS011;4979;51.014;6.678;2023-04-19T02:52:51;18.90;;;13.30;;
9880;SDS011;4979;51.014;6.678;2023-04-19T02:55:17;16.75;;;12.52;;
9880;SDS011;4979;51.014;6.678;2023-04-19T02:57:43;16.92;;;12.30;;
9880;SDS011;4979;51.014;6.678;2023-04-19T03:00:08;16.50;;;11.93;;
9880;SDS011;4979;51.014;6.678;2023-04-19T03:02:35;20.23;;;13.65;;
9880;SDS011;4979;51.014;6.678;2023-04-19T03:05:01;16.45;;;12.65;;
9880;SDS011;4979;51.014;6.678;2023-04-19T03:07:28;16.85;;;12.20;;
9880;SDS011;4979;51.014;6.678;2023-04-19T03:09:54;18.38;;;12.35;;
9880;SDS011;4979;51.014;6.678;2023-04-19T03:12:19;15.05;;;12.65;;
9880;SDS011;4979;51.014;6.678;2023-04-19T03:14:45;19.15;;;12.10;;
9880;SDS011;4979;51.014;6.678;2023-04-19T03:17:10;15.13;;;11.90;;
9880;SDS011;4979;51.014;6.678;2023-04-19T03:19:36;16.17;;;11.13;;
9880;SDS011;4979;51.014;6.678;2023-04-19T03:22:02;17.88;;;13.13;;
9880;SDS011;4979;51.014;6.678;2023-04-19T03:24:28;16.73;;;11.38;;
9880;SDS011;4979;51.014;6.678;2023-04-19T03:26:55;14.98;;;11.20;;
9880;SDS011;4979;51.014;6.678;2023-04-19T03:29:20;15.93;;;10.80;;
9880;SDS011;4979;51.014;6.678;2023-04-19T03:31:46;14.77;;;11.35;;
9880;SDS011;4979;51.014;6.678;2023-04-19T03:34:12;17.17;;;11.98;;
9880;SDS011;4979;51.014;6.678;2023-04-19T03:36:38;16.70;;;12.02;;
9880;SDS011;4979;51.014;6.678;2023-04-19T03:39:04;14.82;;;10.77;;
9880;SDS011;4979;51.014;6.678;2023-04-19T03:41:30;19.85;;;12.27;;
9880;SDS011;4979;51.014;6.678;2023-04-19T03:43:56;16.30;;;11.95;;
9880;SDS011;4979;51.014;6.678;2023-04-19T03:46:22;17.52;;;12.32;;
9880;SDS011;4979;51.014;6.678;2023-04-19T03:48:48;15.65;;;11.90;;
9880;SDS011;4979;51.014;6.678;2023-04-19T03:51:15;15.68;;;11.57;;
9880;SDS011;4979;51.014;6.678;2023-04-19T03:53:40;17.35;;;12.18;;
9880;SDS011;4979;51.014;6.678;2023-04-19T03:56:06;16.00;;;11.30;;
9880;SDS011;4979;51.014;6.678;2023-04-19T03:58:32;16.52;;;11.85;;
9880;SDS011;4979;51.014;6.678;2023-04-19T04:00:58;14.85;;;11.30;;
9880;SDS011;4979;51.014;6.678;2023-04-19T04:03:24;15.88;;;11.63;;
9880;SDS011;4979;51.014;6.678;2023-04-19T04:05:49;19.15;;;11.35;;
9880;SDS011;4979;51.014;6.678;2023-04-19T04:08:15;16.88;;;12.20;;
9880;SDS011;4979;51.014;6.678;2023-04-19T04:10:40;20.45;;;12.70;;
9880;SDS011;4979;51.014;6.678;2023-04-19T04:13:06;16.33;;;11.85;;
9880;SDS011;4979;51.014;6.678;2023-04-19T04:15:32;14.40;;;11.27;;
9880;SDS011;4979;51.014;6.678;2023-04-19T04:17:58;14.65;;;11.43;;
9880;SDS011;4979;51.014;6.678;2023-04-19T04:20:23;23.20;;;12.15;;
9880;SDS011;4979;51.014;6.678;2023-04-19T04:22:49;12.32;;;8.85;;
9880;SDS011;4979;51.014;6.678;2023-04-19T04:25:15;19.27;;;12.60;;
9880;SDS011;4979;51.014;6.678;2023-04-19T04:27:41;17.15;;;12.43;;
9880;SDS011;4979;51.014;6.678;2023-04-19T04:30:08;14.93;;;11.55;;
9880;SDS011;4979;51.014;6.678;2023-04-19T04:32:35;16.13;;;11.90;;
9880;SDS011;4979;51.014;6.678;2023-04-19T04:35:01;14.50;;;10.93;;
9880;SDS011;4979;51.014;6.678;2023-04-19T04:37:27;19.77;;;11.80;;
9880;SDS011;4979;51.014;6.678;2023-04-19T04:39:55;15.13;;;11.45;;
9880;SDS011;4979;51.014;6.678;2023-04-19T04:42:20;15.82;;;12.43;;
9880;SDS011;4979;51.014;6.678;2023-04-19T04:44:46;15.20;;;11.73;;
9880;SDS011;4979;51.014;6.678;2023-04-19T04:47:12;18.23;;;13.45;;
9880;SDS011;4979;51.014;6.678;2023-04-19T04:49:37;17.65;;;12.27;;
9880;SDS011;4979;51.014;6.678;2023-04-19T04:52:03;15.70;;;12.43;;
9880;SDS011;4979;51.014;6.678;2023-04-19T04:54:29;19.55;;;12.38;;
9880;SDS011;4979;51.014;6.678;2023-04-19T04:56:54;18.05;;;11.75;;
9880;SDS011;4979;51.014;6.678;2023-04-19T04:59:20;13.80;;;10.57;;
9880;SDS011;4979;51.014;6.678;2023-04-19T05:01:46;13.68;;;11.35;;
9880;SDS011;4979;51.014;6.678;2023-04-19T05:04:11;16.23;;;11.27;;
9880;SDS011;4979;51.014;6.678;2023-04-19T05:06:37;16.38;;;12.20;;
9880;SDS011;4979;51.014;6.678;2023-04-19T05:09:05;18.38;;;12.07;;
9880;SDS011;4979;51.014;6.678;2023-04-19T05:11:31;17.98;;;12.90;;
9880;SDS011;4979;51.014;6.678;2023-04-19T05:13:57;14.30;;;11.50;;
9880;SDS011;4979;51.014;6.678;2023-04-19T05:16:24;15.32;;;12.02;;
9880;SDS011;4979;51.014;6.678;2023-04-19T05:18:50;15.20;;;11.52;;
9880;SDS011;4979;51.014;6.678;2023-04-19T05:21:15;17.35;;;11.73;;
9880;SDS011;4979;51.014;6.678;2023-04-19T05:23:41;16.77;;;12.20;;
9880;SDS011;4979;51.014;6.678;2023-04-19T05:26:07;15.65;;;11.52;;
9880;SDS011;4979;51.014;6.678;2023-04-19T05:28:36;13.82;;;10.60;;
9880;SDS011;4979;51.014;6.678;2023-04-19T05:31:02;18.60;;;11.23;;
9880;SDS011;4979;51.014;6.678;2023-04-19T05:33:28;17.63;;;11.15;;
9880;SDS011;4979;51.014;6.678;2023-04-19T05:35:54;16.35;;;11.00;;
9880;SDS011;4979;51.014;6.678;2023-04-19T05:38:19;12.43;;;9.98;;
9880;SDS011;4979;51.014;6.678;2023-04-19T05:40:45;13.88;;;10.30;;
9880;SDS011;4979;51.014;6.678;2023-04-19T05:43:10;12.07;;;8.93;;
9880;SDS011;4979;51.014;6.678;2023-04-19T05:45:36;11.82;;;9.18;;
9880;SDS011;4979;51.014;6.678;2023-04-19T05:48:02;10.35;;;8.10;;
9880;SDS011;4979;51.014;6.678;2023-04-19T05:50:28;12.15;;;8.60;;
9880;SDS011;4979;51.014;6.678;2023-04-19T05:52:53;13.90;;;8.10;;
9880;SDS011;4979;51.014;6.678;2023-04-19T05:55:19;9.95;;;7.88;;
9880;SDS011;4979;51.014;6.678;2023-04-19T05:57:44;9.38;;;7.35;;
9880;SDS011;4979;51.014;6.678;2023-04-19T06:00:10;12.50;;;7.35;;
9880;SDS011;4979;51.014;6.678;2023-04-19T06:02:36;11.65;;;5.80;;
9880;SDS011;4979;51.014;6.678;2023-04-19T06:05:02;9.23;;;5.43;;
9880;SDS011;4979;51.014;6.678;2023-04-19T06:07:28;8.25;;;5.50;;
9880;SDS011;4979;51.014;6.678;2023-04-19T06:09:55;7.25;;;6.03;;
9880;SDS011;4979;51.014;6.678;2023-04-19T06:12:20;9.68;;;6.45;;
9880;SDS011;4979;51.014;6.678;2023-04-19T06:14:46;8.15;;;5.25;;
9880;SDS011;4979;51.014;6.678;2023-04-19T06:17:12;6.45;;;5.20;;
9880;SDS011;4979;51.014;6.678;2023-04-19T06:19:40;10.85;;;5.63;;
9880;SDS011;4979;51.014;6.678;2023-04-19T06:22:06;9.13;;;4.85;;
9880;SDS011;4979;51.014;6.678;2023-04-19T06:24:32;7.05;;;5.05;;
9880;SDS011;4979;51.014;6.678;2023-04-19T06:26:58;8.35;;;5.93;;
9880;SDS011;4979;51.014;6.678;2023-04-19T06:29:24;7.85;;;5.55;;
9880;SDS011;4979;51.014;6.678;2023-04-19T06:31:50;7.20;;;5.25;;
9880;SDS011;4979;51.014;6.678;2023-04-19T06:34:15;8.88;;;5.65;;
9880;SDS011;4979;51.014;6.678;2023-04-19T06:36:41;7.93;;;5.22;;
9880;SDS011;4979;51.014;6.678;2023-04-19T06:39:06;8.23;;;5.40;;
9880;SDS011;4979;51.014;6.678;2023-04-19T06:41:33;7.68;;;5.60;;
9880;SDS011;4979;51.014;6.678;2023-04-19T06:43:59;8.45;;;5.15;;
9880;SDS011;4979;51.014;6.678;2023-04-19T06:46:25;6.43;;;4.75;;
9880;SDS011;4979;51.014;6.678;2023-04-19T06:48:51;7.25;;;4.90;;
9880;SDS011;4979;51.014;6.678;2023-04-19T06:51:17;7.38;;;5.00;;
9880;SDS011;4979;51.014;6.678;2023-04-19T06:53:43;7.28;;;5.13;;
9880;SDS011;4979;51.014;6.678;2023-04-19T06:56:09;4.93;;;4.13;;
9880;SDS011;4979;51.014;6.678;2023-04-19T06:58:35;7.57;;;5.00;;
9880;SDS011;4979;51.014;6.678;2023-04-19T07:01:02;8.13;;;4.65;;
9880;SDS011;4979;51.014;6.678;2023-04-19T07:03:28;7.55;;;4.90;;
9880;SDS011;4979;51.014;6.678;2023-04-19T07:05:54;5.88;;;4.80;;
9880;SDS011;4979;51.014;6.678;2023-04-19T07:08:22;5.97;;;4.45;;
9880;SDS011;4979;51.014;6.678;2023-04-19T07:10:48;7.43;;;5.10;;
9880;SDS011;4979;51.014;6.678;2023-04-19T07:13:14;7.53;;;4.80;;
9880;SDS011;4979;51.014;6.678;2023-04-19T07:15:40;6.82;;;5.10;;
9880;SDS011;4979;51.014;6.678;2023-04-19T07:18:06;7.97;;;5.57;;
9880;SDS011;4979;51.014;6.678;2023-04-19T07:20:34;7.53;;;5.22;;
9880;SDS011;4979;51.014;6.678;2023-04-19T07:23:00;6.55;;;4.00;;
9880;SDS011;4979;51.014;6.678;2023-04-19T07:25:26;6.88;;;5.00;;
9880;SDS011;4979;51.014;6.678;2023-04-19T07:27:52;5.32;;;4.57;;
9880;SDS011;4979;51.014;6.678;2023-04-19T07:30:19;5.72;;;5.03;;
9880;SDS011;4979;51.014;6.678;2023-04-19T07:32:45;8.75;;;5.00;;
9880;SDS011;4979;51.014;6.678;2023-04-19T07:35:10;6.68;;;5.20;;
9880;SDS011;4979;51.014;6.678;2023-04-19T07:37:36;10.23;;;6.30;;
9880;SDS011;4979;51.014;6.678;2023-04-19T07:40:02;6.65;;;4.88;;
9880;SDS011;4979;51.014;6.678;2023-04-19T07:42:29;8.88;;;4.53;;
9880;SDS011;4979;51.014;6.678;2023-04-19T07:44:55;5.95;;;4.97;;
9880;SDS011;4979;51.014;6.678;2023-04-19T07:47:21;5.55;;;3.97;;
9880;SDS011;4979;51.014;6.678;2023-04-19T07:49:50;9.45;;;5.13;;
9880;SDS011;4979;51.014;6.678;2023-04-19T07:52:16;6.53;;;4.95;;
9880;SDS011;4979;51.014;6.678;2023-04-19T07:54:42;6.65;;;4.38;;
9880;SDS011;4979;51.014;6.678;2023-04-19T07:57:08;9.25;;;4.60;;
9880;SDS011;4979;51.014;6.678;2023-04-19T07:59:34;7.50;;;5.68;;
9880;SDS011;4979;51.014;6.678;2023-04-19T08:02:00;6.88;;;4.57;;
9880;SDS011;4979;51.014;6.678;2023-04-19T08:04:26;6.97;;;5.25;;
9880;SDS011;4979;51.014;6.678;2023-04-19T08:06:51;7.00;;;5.13;;
9880;SDS011;4979;51.014;6.678;2023-04-19T08:09:17;5.60;;;3.63;;
9880;SDS011;4979;51.014;6.678;2023-04-19T08:11:43;6.25;;;4.20;;
9880;SDS011;4979;51.014;6.678;2023-04-19T08:14:09;10.32;;;5.30;;
9880;SDS011;4979;51.014;6.678;2023-04-19T08:16:36;8.38;;;5.30;;
9880;SDS011;4979;51.014;6.678;2023-04-19T08:19:02;6.95;;;4.60;;
9880;SDS011;4979;51.014;6.678;2023-04-19T08:21:28;7.75;;;5.20;;
9880;SDS011;4979;51.014;6.678;2023-04-19T08:23:54;5.72;;;5.07;;
9880;SDS011;4979;51.014;6.678;2023-04-19T08:26:20;6.80;;;4.50;;
9880;SDS011;4979;51.014;6.678;2023-04-19T08:28:46;6.38;;;5.03;;
9880;SDS011;4979;51.014;6.678;2023-04-19T08:31:14;7.07;;;5.65;;
9880;SDS011;4979;51.014;6.678;2023-04-19T08:33:40;6.53;;;4.03;;
9880;SDS011;4979;51.014;6.678;2023-04-19T08:36:06;5.78;;;4.30;;
9880;SDS011;4979;51.014;6.678;2023-04-19T08:38:32;7.75;;;4.82;;
9880;SDS011;4979;51.014;6.678;2023-04-19T08:40:58;6.90;;;4.72;;
9880;SDS011;4979;51.014;6.678;2023-04-19T08:43:24;6.15;;;4.82;;
9880;SDS011;4979;51.014;6.678;2023-04-19T08:45:52;9.02;;;5.00;;
9880;SDS011;4979;51.014;6.678;2023-04-19T08:48:19;6.43;;;4.45;;
9880;SDS011;4979;51.014;6.678;2023-04-19T08:50:46;5.57;;;4.50;;
9880;SDS011;4979;51.014;6.678;2023-04-19T08:53:13;6.47;;;4.15;;
9880;SDS011;4979;51.014;6.678;2023-04-19T08:55:40;6.30;;;4.43;;
9880;SDS011;4979;51.014;6.678;2023-04-19T08:58:07;9.13;;;4.47;;
9880;SDS011;4979;51.014;6.678;2023-04-19T09:00:36;6.82;;;4.38;;
9880;SDS011;4979;51.014;6.678;2023-04-19T09:03:02;5.00;;;3.75;;
9880;SDS011;4979;51.014;6.678;2023-04-19T09:05:30;7.60;;;4.43;;
9880;SDS011;4979;51.014;6.678;2023-04-19T09:08:09;8.40;;;4.57;;
9880;SDS011;4979;51.014;6.678;2023-04-19T09:10:51;4.68;;;3.60;;
9880;SDS011;4979;51.014;6.678;2023-04-19T09:13:17;7.00;;;4.03;;
9880;SDS011;4979;51.014;6.678;2023-04-19T09:15:43;5.47;;;4.25;;
9880;SDS011;4979;51.014;6.678;2023-04-19T09:18:09;3.58;;;3.08;;
9880;SDS011;4979;51.014;6.678;2023-04-19T09:20:39;5.60;;;3.83;;
9880;SDS011;4979;51.014;6.678;2023-04-19T09:23:07;5.55;;;3.30;;
9880;SDS011;4979;51.014;6.678;2023-04-19T09:25:34;5.20;;;3.63;;
9880;SDS011;4979;51.014;6.678;2023-04-19T09:28:12;5.10;;;3.72;;
9880;SDS011;4979;51.014;6.678;2023-04-19T09:30:39;4.72;;;2.97;;
9880;SDS011;4979;51.014;6.678;2023-04-19T09:33:06;5.72;;;3.75;;
9880;SDS011;4979;51.014;6.678;2023-04-19T09:35:47;6.65;;;3.60;;
9880;SDS011;4979;51.014;6.678;2023-04-19T09:38:13;5.15;;;3.45;;
9880;SDS011;4979;51.014;6.678;2023-04-19T09:40:40;4.05;;;3.15;;
9880;SDS011;4979;51.014;6.678;2023-04-19T09:43:07;5.07;;;3.45;;
9880;SDS011;4979;51.014;6.678;2023-04-19T09:45:39;6.95;;;2.88;;
9880;SDS011;4979;51.014;6.678;2023-04-19T09:48:07;4.90;;;3.00;;
9880;SDS011;4979;51.014;6.678;2023-04-19T09:50:33;11.13;;;3.65;;
9880;SDS011;4979;51.014;6.678;2023-04-19T09:52:59;6.70;;;3.67;;
9880;SDS011;4979;51.014;6.678;2023-04-19T09:55:25;5.70;;;3.50;;
9880;SDS011;4979;51.014;6.678;2023-04-19T09:57:52;5.22;;;3.47;;
9880;SDS011;4979;51.014;6.678;2023-04-19T10:00:18;5.47;;;3.83;;
9880;SDS011;4979;51.014;6.678;2023-04-19T10:02:45;6.05;;;2.90;;
9880;SDS011;4979;51.014;6.678;2023-04-19T10:05:18;5.10;;;3.67;;
9880;SDS011;4979;51.014;6.678;2023-04-19T10:07:45;4.65;;;2.88;;
9880;SDS011;4979;51.014;6.678;2023-04-19T10:10:10;4.13;;;2.97;;
9880;SDS011;4979;51.014;6.678;2023-04-19T10:12:37;3.92;;;3.08;;
9880;SDS011;4979;51.014;6.678;2023-04-19T10:15:03;3.20;;;2.83;;
9880;SDS011;4979;51.014;6.678;2023-04-19T10:17:30;5.18;;;3.35;;
9880;SDS011;4979;51.014;6.678;2023-04-19T10:19:58;7.40;;;3.05;;
9880;SDS011;4979;51.014;6.678;2023-04-19T10:22:26;5.50;;;2.80;;
9880;SDS011;4979;51.014;6.678;2023-04-19T10:25:08;5.95;;;2.85;;
9880;SDS011;4979;51.014;6.678;2023-04-19T10:27:38;5.05;;;3.00;;
9880;SDS011;4979;51.014;6.678;2023-04-19T10:30:04;4.53;;;3.28;;
9880;SDS011;4979;51.014;6.678;2023-04-19T10:32:40;4.65;;;3.30;;
9880;SDS011;4979;51.014;6.678;2023-04-19T10:35:17;10.85;;;3.85;;
9880;SDS011;4979;51.014;6.678;2023-04-19T10:41:15;4.63;;;3.45;;
9880;SDS011;4979;51.014;6.678;2023-04-19T10:43:20;4.13;;;3.20;;
9880;SDS011;4979;51.014;6.678;2023-04-19T10:45:46;4.97;;;3.10;;
9880;SDS011;4979;51.014;6.678;2023-04-19T10:51:10;3.20;;;2.78;;
9880;SDS011;4979;51.014;6.678;2023-04-19T10:53:43;4.18;;;2.50;;
9880;SDS011;4979;51.014;6.678;2023-04-19T10:56:09;7.57;;;2.72;;
9880;SDS011;4979;51.014;6.678;2023-04-19T11:01:32;4.38;;;3.55;;
9880;SDS011;4979;51.014;6.678;2023-04-19T11:04:05;3.05;;;2.10;;
9880;SDS011;4979;51.014;6.678;2023-04-19T11:06:31;2.72;;;2.17;;
9880;SDS011;4979;51.014;6.678;2023-04-19T11:08:58;3.00;;;2.30;;
9880;SDS011;4979;51.014;6.678;2023-04-19T11:11:24;4.00;;;2.58;;
9880;SDS011;4979;51.014;6.678;2023-04-19T11:13:50;2.83;;;2.13;;
9880;SDS011;4979;51.014;6.678;2023-04-19T11:16:19;2.63;;;2.17;;
9880;SDS011;4979;51.014;6.678;2023-04-19T11:18:45;3.53;;;2.00;;
9880;SDS011;4979;51.014;6.678;2023-04-19T11:21:14;6.10;;;2.05;;
9880;SDS011;4979;51.014;6.678;2023-04-19T11:23:42;3.28;;;1.60;;
9880;SDS011;4979;51.014;6.678;2023-04-19T11:26:11;3.83;;;1.67;;
9880;SDS011;4979;51.014;6.678;2023-04-19T11:28:40;2.13;;;1.80;;
9880;SDS011;4979;51.014;6.678;2023-04-19T11:31:05;5.25;;;1.83;;
9880;SDS011;4979;51.014;6.678;2023-04-19T11:33:34;3.25;;;1.88;;
9880;SDS011;4979;51.014;6.678;2023-04-19T11:36:01;2.00;;;1.77;;
9880;SDS011;4979;51.014;6.678;2023-04-19T11:38:27;1.67;;;1.58;;
9880;SDS011;4979;51.014;6.678;2023-04-19T11:40:57;3.70;;;1.80;;
9880;SDS011;4979;51.014;6.678;2023-04-19T11:43:23;2.72;;;1.90;;
9880;SDS011;4979;51.014;6.678;2023-04-19T11:46:07;1.67;;;1.58;;
9880;SDS011;4979;51.014;6.678;2023-04-19T11:48:33;6.40;;;1.95;;
9880;SDS011;4979;51.014;6.678;2023-04-19T11:51:00;3.38;;;1.83;;
9880;SDS011;4979;51.014;6.678;2023-04-19T11:53:26;2.75;;;1.75;;
9880;SDS011;4979;51.014;6.678;2023-04-19T11:55:53;4.43;;;2.00;;
9880;SDS011;4979;51.014;6.678;2023-04-19T11:58:51;2.85;;;1.63;;
9880;SDS011;4979;51.014;6.678;2023-04-19T12:01:21;3.67;;;2.00;;
9880;SDS011;4979;51.014;6.678;2023-04-19T12:03:52;3.47;;;2.13;;
9880;SDS011;4979;51.014;6.678;2023-04-19T12:08:50;2.25;;;1.92;;
9880;SDS011;4979;51.014;6.678;2023-04-19T12:11:17;4.03;;;2.28;;
9880;SDS011;4979;51.014;6.678;2023-04-19T12:13:45;2.45;;;1.90;;
9880;SDS011;4979;51.014;6.678;2023-04-19T12:16:12;2.90;;;1.75;;
9880;SDS011;4979;51.014;6.678;2023-04-19T12:18:40;3.05;;;2.00;;
9880;SDS011;4979;51.014;6.678;2023-04-19T12:21:08;6.68;;;1.90;;
9880;SDS011;4979;51.014;6.678;2023-04-19T12:23:34;3.17;;;2.47;;
9880;SDS011;4979;51.014;6.678;2023-04-19T12:26:02;2.38;;;2.10;;
9880;SDS011;4979;51.014;6.678;2023-04-19T12:28:32;4.65;;;2.25;;
9880;SDS011;4979;51.014;6.678;2023-04-19T12:30:58;2.95;;;1.70;;
9880;SDS011;4979;51.014;6.678;2023-04-19T12:33:23;3.63;;;2.30;;
9880;SDS011;4979;51.014;6.678;2023-04-19T12:35:49;3.40;;;2.30;;
9880;SDS011;4979;51.014;6.678;2023-04-19T12:38:15;3.88;;;2.63;;
9880;SDS011;4979;51.014;6.678;2023-04-19T12:40:41;3.30;;;2.30;;
9880;SDS011;4979;51.014;6.678;2023-04-19T12:43:07;3.72;;;2.53;;
9880;SDS011;4979;51.014;6.678;2023-04-19T12:45:33;3.88;;;2.28;;
9880;SDS011;4979;51.014;6.678;2023-04-19T12:47:59;3.55;;;2.28;;
9880;SDS011;4979;51.014;6.678;2023-04-19T12:50:24;3.65;;;2.53;;
9880;SDS011;4979;51.014;6.678;2023-04-19T12:52:50;2.70;;;2.40;;
9880;SDS011;4979;51.014;6.678;2023-04-19T12:55:17;4.28;;;2.30;;
9880;SDS011;4979;51.014;6.678;2023-04-19T12:57:43;4.85;;;2.45;;
9880;SDS011;4979;51.014;6.678;2023-04-19T13:00:09;6.50;;;2.60;;
9880;SDS011;4979;51.014;6.678;2023-04-19T13:02:36;2.85;;;2.40;;
9880;SDS011;4979;51.014;6.678;2023-04-19T13:05:02;4.97;;;3.13;;
9880;SDS011;4979;51.014;6.678;2023-04-19T13:07:29;3.45;;;2.70;;
9880;SDS011;4979;51.014;6.678;2023-04-19T13:09:55;10.68;;;3.15;;
9880;SDS011;4979;51.014;6.678;2023-04-19T13:12:21;6.20;;;2.70;;
9880;SDS011;4979;51.014;6.678;2023-04-19T13:14:47;2.95;;;2.20;;
9880;SDS011;4979;51.014;6.678;2023-04-19T13:17:16;3.25;;;2.72;;
9880;SDS011;4979;51.014;6.678;2023-04-19T13:19:42;9.23;;;2.75;;
9880;SDS011;4979;51.014;6.678;2023-04-19T13:22:08;5.35;;;2.35;;
9880;SDS011;4979;51.014;6.678;2023-04-19T13:24:34;5.55;;;3.05;;
9880;SDS011;4979;51.014;6.678;2023-04-19T13:27:00;4.32;;;2.80;;
9880;SDS011;4979;51.014;6.678;2023-04-19T13:29:26;7.72;;;2.90;;
9880;SDS011;4979;51.014;6.678;2023-04-19T13:31:52;3.03;;;2.35;;
9880;SDS011;4979;51.014;6.678;2023-04-19T13:34:18;5.82;;;2.45;;
9880;SDS011;4979;51.014;6.678;2023-04-19T13:36:45;5.50;;;2.85;;
9880;SDS011;4979;51.014;6.678;2023-04-19T13:39:10;3.15;;;2.65;;
9880;SDS011;4979;51.014;6.678;2023-04-19T13:41:36;3.55;;;2.85;;
9880;SDS011;4979;51.014;6.678;2023-04-19T13:44:02;4.10;;;2.60;;
9880;SDS011;4979;51.014;6.678;2023-04-19T13:46:28;3.45;;;2.78;;
9880;SDS011;4979;51.014;6.678;2023-04-19T13:48:53;3.05;;;2.30;;
9880;SDS011;4979;51.014;6.678;2023-04-19T13:51:19;2.72;;;2.05;;
9880;SDS011;4979;51.014;6.678;2023-04-19T13:53:45;3.63;;;2.78;;
9880;SDS011;4979;51.014;6.678;2023-04-19T13:56:11;4.90;;;2.53;;
9880;SDS011;4979;51.014;6.678;2023-04-19T13:58:37;3.45;;;2.80;;
9880;SDS011;4979;51.014;6.678;2023-04-19T14:01:02;2.95;;;2.25;;
9880;SDS011;4979;51.014;6.678;2023-04-19T14:03:28;6.45;;;3.22;;
9880;SDS011;4979;51.014;6.678;2023-04-19T14:05:54;2.67;;;2.10;;
9880;SDS011;4979;51.014;6.678;2023-04-19T14:08:20;3.88;;;2.40;;
9880;SDS011;4979;51.014;6.678;2023-04-19T14:10:47;8.95;;;3.13;;
9880;SDS011;4979;51.014;6.678;2023-04-19T14:13:13;5.25;;;2.95;;
9880;SDS011;4979;51.014;6.678;2023-04-19T14:15:39;2.85;;;2.65;;
9880;SDS011;4979;51.014;6.678;2023-04-19T14:18:05;5.18;;;2.90;;
9880;SDS011;4979;51.014;6.678;2023-04-19T14:20:31;3.22;;;2.90;;
9880;SDS011;4979;51.014;6.678;2023-04-19T14:22:57;4.63;;;3.13;;
9880;SDS011;4979;51.014;6.678;2023-04-19T14:25:24;4.80;;;2.28;;
9880;SDS011;4979;51.014;6.678;2023-04-19T14:27:50;6.40;;;2.95;;
9880;SDS011;4979;51.014;6.678;2023-04-19T14:30:16;6.18;;;3.03;;
9880;SDS011;4979;51.014;6.678;2023-04-19T14:32:42;3.85;;;2.67;;
9880;SDS011;4979;51.014;6.678;2023-04-19T14:35:07;3.97;;;2.83;;
9880;SDS011;4979;51.014;6.678;2023-04-19T14:37:35;4.55;;;3.13;;
9880;SDS011;4979;51.014;6.678;2023-04-19T14:40:01;5.63;;;2.58;;
9880;SDS011;4979;51.014;6.678;2023-04-19T14:42:26;6.35;;;3.00;;
9880;SDS011;4979;51.014;6.678;2023-04-19T14:44:52;3.33;;;2.90;;
9880;SDS011;4979;51.014;6.678;2023-04-19T14:47:18;4.63;;;2.92;;
9880;SDS011;4979;51.014;6.678;2023-04-19T14:49:44;5.38;;;2.90;;
9880;SDS011;4979;51.014;6.678;2023-04-19T14:52:10;4.20;;;3.30;;
9880;SDS011;4979;51.014;6.678;2023-04-19T14:54:36;3.53;;;2.80;;
9880;SDS011;4979;51.014;6.678;2023-04-19T14:57:02;3.72;;;3.40;;
9880;SDS011;4979;51.014;6.678;2023-04-19T14:59:28;6.32;;;3.08;;
9880;SDS011;4979;51.014;6.678;2023-04-19T15:01:53;6.55;;;3.83;;
9880;SDS011;4979;51.014;6.678;2023-04-19T15:04:19;4.30;;;3.25;;
9880;SDS011;4979;51.014;6.678;2023-04-19T15:06:45;4.93;;;2.70;;
9880;SDS011;4979;51.014;6.678;2023-04-19T15:09:11;5.93;;;2.38;;
9880;SDS011;4979;51.014;6.678;2023-04-19T15:11:37;4.47;;;2.70;;